sensor_id;sensor_type;location;lat;lon;timestamp;temperature;humidity
78884;SHT31;68262;51.968;5.672;2023-03-15T00:00:21;6.6;64.3
78884;SHT31;68262;51.968;5.672;2023-03-15T00:02:51;6.6;63.7
78884;SHT31;68262;51.968;5.672;2023-03-15T00:05:21;6.6;64.0
78884;SHT31;68262;51.968;5.672;2023-03-15T00:07:50;6.6;63.9
78884;SHT31;68262;51.968;5.672;2023-03-15T00:10:19;6.6;64.2
78884;SHT31;68262;51.968;5.672;2023-03-15T00:12:49;6.6;64.0
78884;SHT31;68262;51.968;5.672;2023-03-15T00:15:20;6.6;64.6
78884;SHT31;68262;51.968;5.672;2023-03-15T00:17:51;6.6;64.7
78884;SHT31;68262;51.968;5.672;2023-03-15T00:20:21;6.6;64.8
78884;SHT31;68262;51.968;5.672;2023-03-15T00:22:50;6.6;64.8
78884;SHT31;68262;51.968;5.672;2023-03-15T00:25:20;6.6;64.6
78884;SHT31;68262;51.968;5.672;2023-03-15T00:27:49;6.6;64.7
78884;SHT31;68262;51.968;5.672;2023-03-15T00:30:18;6.6;65.1
78884;SHT31;68262;51.968;5.672;2023-03-15T00:32:48;6.6;64.8
78884;SHT31;68262;51.968;5.672;2023-03-15T00:35:20;6.6;65.8
78884;SHT31;68262;51.968;5.672;2023-03-15T00:37:53;6.6;66.2
78884;SHT31;68262;51.968;5.672;2023-03-15T00:40:23;6.6;65.6
78884;SHT31;68262;51.968;5.672;2023-03-15T00:42:53;6.6;65.4
78884;SHT31;68262;51.968;5.672;2023-03-15T00:45:24;6.6;66.2
78884;SHT31;68262;51.968;5.672;2023-03-15T00:47:54;6.7;66.1
78884;SHT31;68262;51.968;5.672;2023-03-15T00:50:24;6.7;65.8
78884;SHT31;68262;51.968;5.672;2023-03-15T00:52:53;6.7;65.6
78884;SHT31;68262;51.968;5.672;2023-03-15T00:55:22;6.7;65.8
78884;SHT31;68262;51.968;5.672;2023-03-15T00:57:53;6.7;66.1
78884;SHT31;68262;51.968;5.672;2023-03-15T01:00:22;6.7;65.4
78884;SHT31;68262;51.968;5.672;2023-03-15T01:02:53;6.7;65.7
78884;SHT31;68262;51.968;5.672;2023-03-15T01:05:22;6.6;65.4
78884;SHT31;68262;51.968;5.672;2023-03-15T01:07:54;6.6;65.7
78884;SHT31;68262;51.968;5.672;2023-03-15T01:10:24;6.6;65.7
78884;SHT31;68262;51.968;5.672;2023-03-15T01:12:53;6.6;65.4
78884;SHT31;68262;51.968;5.672;2023-03-15T01:15:22;6.6;65.2
78884;SHT31;68262;51.968;5.672;2023-03-15T01:17:52;6.6;65.7
78884;SHT31;68262;51.968;5.672;2023-03-15T01:20:21;6.6;66.4
78884;SHT31;68262;51.968;5.672;2023-03-15T01:22:51;6.6;65.7
78884;SHT31;68262;51.968;5.672;2023-03-15T01:25:21;6.6;66.5
78884;SHT31;68262;51.968;5.672;2023-03-15T01:27:50;6.6;66.0
78884;SHT31;68262;51.968;5.672;2023-03-15T01:30:19;6.6;65.8
78884;SHT31;68262;51.968;5.672;2023-03-15T01:32:49;6.6;65.5
78884;SHT31;68262;51.968;5.672;2023-03-15T01:35:18;6.6;65.6
78884;SHT31;68262;51.968;5.672;2023-03-15T01:37:50;6.6;65.5
78884;SHT31;68262;51.968;5.672;2023-03-15T01:40:20;6.5;65.4
78884;SHT31;68262;51.968;5.672;2023-03-15T01:43:12;6.5;65.4
78884;SHT31;68262;51.968;5.672;2023-03-15T01:46:01;6.5;65.4
78884;SHT31;68262;51.968;5.672;2023-03-15T01:48:35;6.5;65.3
78884;SHT31;68262;51.968;5.672;2023-03-15T01:51:20;6.5;65.5
78884;SHT31;68262;51.968;5.672;2023-03-15T01:53:55;6.4;65.1
78884;SHT31;68262;51.968;5.672;2023-03-15T01:56:29;6.4;66.4
78884;SHT31;68262;51.968;5.672;2023-03-15T01:59:02;6.4;65.6
78884;SHT31;68262;51.968;5.672;2023-03-15T02:01:35;6.4;65.6
78884;SHT31;68262;51.968;5.672;2023-03-15T02:04:08;6.4;66.0
78884;SHT31;68262;51.968;5.672;2023-03-15T02:06:41;6.4;66.1
78884;SHT31;68262;51.968;5.672;2023-03-15T02:09:15;6.4;66.3
78884;SHT31;68262;51.968;5.672;2023-03-15T02:11:48;6.4;66.2
78884;SHT31;68262;51.968;5.672;2023-03-15T02:14:18;6.4;66.1
78884;SHT31;68262;51.968;5.672;2023-03-15T02:16:49;6.3;66.1
78884;SHT31;68262;51.968;5.672;2023-03-15T02:19:34;6.3;66.1
78884;SHT31;68262;51.968;5.672;2023-03-15T02:22:17;6.3;66.0
78884;SHT31;68262;51.968;5.672;2023-03-15T02:24:55;6.3;66.3
78884;SHT31;68262;51.968;5.672;2023-03-15T02:27:29;6.3;66.0
78884;SHT31;68262;51.968;5.672;2023-03-15T02:30:01;6.3;66.2
78884;SHT31;68262;51.968;5.672;2023-03-15T02:32:31;6.2;66.3
78884;SHT31;68262;51.968;5.672;2023-03-15T02:35:03;6.2;66.3
78884;SHT31;68262;51.968;5.672;2023-03-15T02:37:32;6.2;66.7
78884;SHT31;68262;51.968;5.672;2023-03-15T02:40:12;6.1;66.8
78884;SHT31;68262;51.968;5.672;2023-03-15T02:42:45;6.1;66.7
78884;SHT31;68262;51.968;5.672;2023-03-15T02:45:15;6.1;66.9
78884;SHT31;68262;51.968;5.672;2023-03-15T02:47:46;6.0;67.1
78884;SHT31;68262;51.968;5.672;2023-03-15T02:50:16;6.0;67.0
78884;SHT31;68262;51.968;5.672;2023-03-15T02:52:45;6.0;67.1
78884;SHT31;68262;51.968;5.672;2023-03-15T02:55:15;6.0;67.2
78884;SHT31;68262;51.968;5.672;2023-03-15T02:57:45;5.9;67.0
78884;SHT31;68262;51.968;5.672;2023-03-15T03:00:15;5.9;67.2
78884;SHT31;68262;51.968;5.672;2023-03-15T03:02:46;5.9;67.4
78884;SHT31;68262;51.968;5.672;2023-03-15T03:05:17;5.8;67.4
78884;SHT31;68262;51.968;5.672;2023-03-15T03:07:47;5.8;67.4
78884;SHT31;68262;51.968;5.672;2023-03-15T03:10:19;5.8;67.7
78884;SHT31;68262;51.968;5.672;2023-03-15T03:12:48;5.7;67.8
78884;SHT31;68262;51.968;5.672;2023-03-15T03:15:20;5.7;67.6
78884;SHT31;68262;51.968;5.672;2023-03-15T03:17:49;5.7;67.9
78884;SHT31;68262;51.968;5.672;2023-03-15T03:20:20;5.7;67.8
78884;SHT31;68262;51.968;5.672;2023-03-15T03:22:50;5.6;68.1
78884;SHT31;68262;51.968;5.672;2023-03-15T03:25:24;5.6;68.3
78884;SHT31;68262;51.968;5.672;2023-03-15T03:27:56;5.6;68.0
78884;SHT31;68262;51.968;5.672;2023-03-15T03:30:26;5.6;68.1
78884;SHT31;68262;51.968;5.672;2023-03-15T03:32:55;5.6;68.3
78884;SHT31;68262;51.968;5.672;2023-03-15T03:35:24;5.6;68.2
78884;SHT31;68262;51.968;5.672;2023-03-15T03:37:54;5.5;68.2
78884;SHT31;68262;51.968;5.672;2023-03-15T03:40:23;5.5;68.3
78884;SHT31;68262;51.968;5.672;2023-03-15T03:42:53;5.5;68.4
78884;SHT31;68262;51.968;5.672;2023-03-15T03:45:22;5.5;68.4
78884;SHT31;68262;51.968;5.672;2023-03-15T03:47:52;5.4;68.4
78884;SHT31;68262;51.968;5.672;2023-03-15T03:50:21;5.4;68.4
78884;SHT31;68262;51.968;5.672;2023-03-15T03:52:51;5.4;68.6
78884;SHT31;68262;51.968;5.672;2023-03-15T03:55:20;5.4;68.7
78884;SHT31;68262;51.968;5.672;2023-03-15T03:57:51;5.3;68.8
78884;SHT31;68262;51.968;5.672;2023-03-15T04:00:21;5.3;68.7
78884;SHT31;68262;51.968;5.672;2023-03-15T04:02:50;5.3;68.9
78884;SHT31;68262;51.968;5.672;2023-03-15T04:05:21;5.3;68.8
78884;SHT31;68262;51.968;5.672;2023-03-15T04:07:52;5.3;68.7
78884;SHT31;68262;51.968;5.672;2023-03-15T04:10:21;5.3;68.7
78884;SHT31;68262;51.968;5.672;2023-03-15T04:12:55;5.3;68.8
78884;SHT31;68262;51.968;5.672;2023-03-15T04:15:26;5.3;68.6
78884;SHT31;68262;51.968;5.672;2023-03-15T04:17:55;5.3;68.7
78884;SHT31;68262;51.968;5.672;2023-03-15T04:20:25;5.3;68.8
78884;SHT31;68262;51.968;5.672;2023-03-15T04:22:55;5.3;68.4
78884;SHT31;68262;51.968;5.672;2023-03-15T04:25:25;5.3;68.7
78884;SHT31;68262;51.968;5.672;2023-03-15T04:27:54;5.3;68.8
78884;SHT31;68262;51.968;5.672;2023-03-15T04:30:29;5.3;68.6
78884;SHT31;68262;51.968;5.672;2023-03-15T04:32:58;5.3;68.3
78884;SHT31;68262;51.968;5.672;2023-03-15T04:35:32;5.3;68.1
78884;SHT31;68262;51.968;5.672;2023-03-15T04:38:02;5.3;68.3
78884;SHT31;68262;51.968;5.672;2023-03-15T04:40:32;5.3;68.2
78884;SHT31;68262;51.968;5.672;2023-03-15T04:43:04;5.3;68.1
78884;SHT31;68262;51.968;5.672;2023-03-15T04:45:34;5.3;67.9
78884;SHT31;68262;51.968;5.672;2023-03-15T04:48:03;5.2;68.3
78884;SHT31;68262;51.968;5.672;2023-03-15T04:50:33;5.2;68.2
78884;SHT31;68262;51.968;5.672;2023-03-15T04:53:04;5.2;68.4
78884;SHT31;68262;51.968;5.672;2023-03-15T04:55:33;5.2;68.5
78884;SHT31;68262;51.968;5.672;2023-03-15T04:58:03;5.2;68.7
78884;SHT31;68262;51.968;5.672;2023-03-15T05:00:32;5.2;68.5
78884;SHT31;68262;51.968;5.672;2023-03-15T05:03:02;5.2;68.6
78884;SHT31;68262;51.968;5.672;2023-03-15T05:05:32;5.2;68.3
78884;SHT31;68262;51.968;5.672;2023-03-15T05:08:01;5.2;68.0
78884;SHT31;68262;51.968;5.672;2023-03-15T05:13:02;5.2;67.7
78884;SHT31;68262;51.968;5.672;2023-03-15T05:15:33;5.2;67.6
78884;SHT31;68262;51.968;5.672;2023-03-15T05:18:03;5.2;67.5
78884;SHT31;68262;51.968;5.672;2023-03-15T05:20:32;5.1;67.7
78884;SHT31;68262;51.968;5.672;2023-03-15T05:23:02;5.1;67.4
78884;SHT31;68262;51.968;5.672;2023-03-15T05:25:31;5.1;67.3
78884;SHT31;68262;51.968;5.672;2023-03-15T05:28:02;5.1;67.4
78884;SHT31;68262;51.968;5.672;2023-03-15T05:30:32;5.1;67.0
78884;SHT31;68262;51.968;5.672;2023-03-15T05:33:01;5.1;66.8
78884;SHT31;68262;51.968;5.672;2023-03-15T05:35:31;5.0;67.3
78884;SHT31;68262;51.968;5.672;2023-03-15T05:38:00;5.0;67.1
78884;SHT31;68262;51.968;5.672;2023-03-15T05:40:31;5.0;67.2
78884;SHT31;68262;51.968;5.672;2023-03-15T05:43:00;5.0;67.4
78884;SHT31;68262;51.968;5.672;2023-03-15T05:45:29;5.0;67.2
78884;SHT31;68262;51.968;5.672;2023-03-15T05:47:59;4.9;67.2
78884;SHT31;68262;51.968;5.672;2023-03-15T05:50:28;4.9;66.9
78884;SHT31;68262;51.968;5.672;2023-03-15T05:52:58;4.9;67.2
78884;SHT31;68262;51.968;5.672;2023-03-15T05:55:30;4.9;66.6
78884;SHT31;68262;51.968;5.672;2023-03-15T05:57:59;4.9;66.6
78884;SHT31;68262;51.968;5.672;2023-03-15T06:00:28;4.9;67.2
78884;SHT31;68262;51.968;5.672;2023-03-15T06:02:58;4.8;67.0
78884;SHT31;68262;51.968;5.672;2023-03-15T06:05:28;4.8;67.1
78884;SHT31;68262;51.968;5.672;2023-03-15T06:07:57;4.8;66.7
78884;SHT31;68262;51.968;5.672;2023-03-15T06:10:26;4.8;67.0
78884;SHT31;68262;51.968;5.672;2023-03-15T06:12:56;4.8;67.3
78884;SHT31;68262;51.968;5.672;2023-03-15T06:15:26;4.8;67.5
78884;SHT31;68262;51.968;5.672;2023-03-15T06:17:56;4.8;67.7
78884;SHT31;68262;51.968;5.672;2023-03-15T06:20:25;4.7;68.1
78884;SHT31;68262;51.968;5.672;2023-03-15T06:22:57;4.7;68.0
78884;SHT31;68262;51.968;5.672;2023-03-15T06:25:26;4.7;68.4
78884;SHT31;68262;51.968;5.672;2023-03-15T06:27:56;4.7;68.3
78884;SHT31;68262;51.968;5.672;2023-03-15T06:30:27;4.7;68.6
78884;SHT31;68262;51.968;5.672;2023-03-15T06:32:57;4.7;68.9
78884;SHT31;68262;51.968;5.672;2023-03-15T06:35:27;4.7;69.2
78884;SHT31;68262;51.968;5.672;2023-03-15T06:37:57;4.7;69.1
78884;SHT31;68262;51.968;5.672;2023-03-15T06:40:26;4.8;68.8
78884;SHT31;68262;51.968;5.672;2023-03-15T06:42:55;4.8;69.0
78884;SHT31;68262;51.968;5.672;2023-03-15T06:45:30;4.8;69.4
78884;SHT31;68262;51.968;5.672;2023-03-15T06:47:59;4.8;69.3
78884;SHT31;68262;51.968;5.672;2023-03-15T06:50:29;4.8;69.5
78884;SHT31;68262;51.968;5.672;2023-03-15T06:52:58;4.8;69.5
78884;SHT31;68262;51.968;5.672;2023-03-15T06:55:29;4.8;69.6
78884;SHT31;68262;51.968;5.672;2023-03-15T06:57:58;4.8;70.0
78884;SHT31;68262;51.968;5.672;2023-03-15T07:00:28;4.8;70.2
78884;SHT31;68262;51.968;5.672;2023-03-15T07:02:57;4.9;70.4
78884;SHT31;68262;51.968;5.672;2023-03-15T07:05:27;4.9;70.6
78884;SHT31;68262;51.968;5.672;2023-03-15T07:07:56;4.9;70.9
78884;SHT31;68262;51.968;5.672;2023-03-15T07:10:26;4.9;71.0
78884;SHT31;68262;51.968;5.672;2023-03-15T07:12:55;4.9;71.3
78884;SHT31;68262;51.968;5.672;2023-03-15T07:15:25;5.0;71.1
78884;SHT31;68262;51.968;5.672;2023-03-15T07:17:54;5.0;71.1
78884;SHT31;68262;51.968;5.672;2023-03-15T07:20:24;5.0;71.2
78884;SHT31;68262;51.968;5.672;2023-03-15T07:22:53;5.1;71.7
78884;SHT31;68262;51.968;5.672;2023-03-15T07:25:23;5.1;71.3
78884;SHT31;68262;51.968;5.672;2023-03-15T07:27:53;5.1;72.1
78884;SHT31;68262;51.968;5.672;2023-03-15T07:30:23;5.2;71.7
78884;SHT31;68262;51.968;5.672;2023-03-15T07:32:54;5.2;71.8
78884;SHT31;68262;51.968;5.672;2023-03-15T07:35:23;5.2;72.3
78884;SHT31;68262;51.968;5.672;2023-03-15T07:37:54;5.3;72.0
78884;SHT31;68262;51.968;5.672;2023-03-15T07:40:24;5.3;71.3
78884;SHT31;68262;51.968;5.672;2023-03-15T07:42:53;5.4;70.8
78884;SHT31;68262;51.968;5.672;2023-03-15T07:45:22;5.4;71.8
78884;SHT31;68262;51.968;5.672;2023-03-15T07:47:54;5.5;72.2
78884;SHT31;68262;51.968;5.672;2023-03-15T07:50:23;5.5;72.0
78884;SHT31;68262;51.968;5.672;2023-03-15T07:52:53;5.6;70.5
78884;SHT31;68262;51.968;5.672;2023-03-15T07:55:22;5.6;71.4
78884;SHT31;68262;51.968;5.672;2023-03-15T07:57:52;5.7;71.8
78884;SHT31;68262;51.968;5.672;2023-03-15T08:00:22;5.7;71.2
78884;SHT31;68262;51.968;5.672;2023-03-15T08:02:51;5.8;70.2
78884;SHT31;68262;51.968;5.672;2023-03-15T08:05:21;5.8;70.9
78884;SHT31;68262;51.968;5.672;2023-03-15T08:07:50;5.9;71.5
78884;SHT31;68262;51.968;5.672;2023-03-15T08:10:20;5.9;71.8
78884;SHT31;68262;51.968;5.672;2023-03-15T08:12:49;6.0;71.5
78884;SHT31;68262;51.968;5.672;2023-03-15T08:15:21;6.2;71.7
78884;SHT31;68262;51.968;5.672;2023-03-15T08:17:50;6.4;69.4
78884;SHT31;68262;51.968;5.672;2023-03-15T08:20:22;6.6;67.9
78884;SHT31;68262;51.968;5.672;2023-03-15T08:22:52;6.8;67.9
78884;SHT31;68262;51.968;5.672;2023-03-15T08:25:22;7.1;66.4
78884;SHT31;68262;51.968;5.672;2023-03-15T08:27:53;7.3;65.9
78884;SHT31;68262;51.968;5.672;2023-03-15T08:30:23;7.6;62.9
78884;SHT31;68262;51.968;5.672;2023-03-15T08:32:52;7.9;63.3
78884;SHT31;68262;51.968;5.672;2023-03-15T08:35:22;8.1;61.4
78884;SHT31;68262;51.968;5.672;2023-03-15T08:37:51;8.3;62.0
78884;SHT31;68262;51.968;5.672;2023-03-15T08:40:21;8.6;61.6
78884;SHT31;68262;51.968;5.672;2023-03-15T08:42:55;8.9;60.8
78884;SHT31;68262;51.968;5.672;2023-03-15T08:45:24;9.1;57.6
78884;SHT31;68262;51.968;5.672;2023-03-15T08:47:58;9.3;60.1
78884;SHT31;68262;51.968;5.672;2023-03-15T08:50:28;9.5;59.2
78884;SHT31;68262;51.968;5.672;2023-03-15T08:52:59;9.7;57.9
78884;SHT31;68262;51.968;5.672;2023-03-15T08:55:28;9.9;56.0
78884;SHT31;68262;51.968;5.672;2023-03-15T08:57:58;10.1;56.0
78884;SHT31;68262;51.968;5.672;2023-03-15T09:00:28;10.2;53.8
78884;SHT31;68262;51.968;5.672;2023-03-15T09:02:57;10.3;49.9
78884;SHT31;68262;51.968;5.672;2023-03-15T09:05:27;10.4;50.8
78884;SHT31;68262;51.968;5.672;2023-03-15T09:07:57;10.5;51.2
78884;SHT31;68262;51.968;5.672;2023-03-15T09:10:28;10.6;48.3
78884;SHT31;68262;51.968;5.672;2023-03-15T09:12:58;10.7;48.2
78884;SHT31;68262;51.968;5.672;2023-03-15T09:15:28;10.7;50.6
78884;SHT31;68262;51.968;5.672;2023-03-15T09:17:57;10.8;47.1
78884;SHT31;68262;51.968;5.672;2023-03-15T09:20:28;10.9;49.5
78884;SHT31;68262;51.968;5.672;2023-03-15T09:22:58;11.1;47.5
78884;SHT31;68262;51.968;5.672;2023-03-15T09:25:27;11.2;48.2
78884;SHT31;68262;51.968;5.672;2023-03-15T09:27:57;11.3;46.7
78884;SHT31;68262;51.968;5.672;2023-03-15T09:30:26;11.4;48.1
78884;SHT31;68262;51.968;5.672;2023-03-15T09:32:56;11.4;48.1
78884;SHT31;68262;51.968;5.672;2023-03-15T09:35:26;11.5;46.3
78884;SHT31;68262;51.968;5.672;2023-03-15T09:37:55;11.5;46.9
78884;SHT31;68262;51.968;5.672;2023-03-15T09:40:28;11.5;46.2
78884;SHT31;68262;51.968;5.672;2023-03-15T09:43:03;11.6;47.1
78884;SHT31;68262;51.968;5.672;2023-03-15T09:45:49;11.6;45.0
78884;SHT31;68262;51.968;5.672;2023-03-15T09:48:28;11.7;45.7
78884;SHT31;68262;51.968;5.672;2023-03-15T09:51:05;11.7;46.5
78884;SHT31;68262;51.968;5.672;2023-03-15T09:53:43;11.8;46.4
78884;SHT31;68262;51.968;5.672;2023-03-15T09:56:21;11.8;45.4
78884;SHT31;68262;51.968;5.672;2023-03-15T09:58:56;12.0;44.0
78884;SHT31;68262;51.968;5.672;2023-03-15T10:01:31;12.1;44.3
78884;SHT31;68262;51.968;5.672;2023-03-15T10:04:07;12.1;42.5
78884;SHT31;68262;51.968;5.672;2023-03-15T10:06:43;12.2;43.2
78884;SHT31;68262;51.968;5.672;2023-03-15T10:09:21;12.2;42.2
78884;SHT31;68262;51.968;5.672;2023-03-15T10:11:58;12.3;42.3
78884;SHT31;68262;51.968;5.672;2023-03-15T10:14:43;12.3;42.6
78884;SHT31;68262;51.968;5.672;2023-03-15T10:17:23;12.4;41.3
78884;SHT31;68262;51.968;5.672;2023-03-15T10:19:59;12.4;41.4
78884;SHT31;68262;51.968;5.672;2023-03-15T10:22:37;12.4;41.3
78884;SHT31;68262;51.968;5.672;2023-03-15T10:25:14;12.4;41.8
78884;SHT31;68262;51.968;5.672;2023-03-15T10:27:48;12.5;41.2
78884;SHT31;68262;51.968;5.672;2023-03-15T10:30:21;12.9;41.4
78884;SHT31;68262;51.968;5.672;2023-03-15T10:32:58;13.3;39.3
78884;SHT31;68262;51.968;5.672;2023-03-15T10:35:30;13.7;39.3
78884;SHT31;68262;51.968;5.672;2023-03-15T10:38:00;14.0;40.1
78884;SHT31;68262;51.968;5.672;2023-03-15T10:40:41;14.3;37.5
78884;SHT31;68262;51.968;5.672;2023-03-15T10:43:19;14.6;37.9
78884;SHT31;68262;51.968;5.672;2023-03-15T10:46:00;14.7;35.4
78884;SHT31;68262;51.968;5.672;2023-03-15T10:48:31;14.8;35.7
78884;SHT31;68262;51.968;5.672;2023-03-15T10:51:04;14.7;35.4
78884;SHT31;68262;51.968;5.672;2023-03-15T10:53:37;14.6;33.6
78884;SHT31;68262;51.968;5.672;2023-03-15T10:56:20;14.5;34.6
78884;SHT31;68262;51.968;5.672;2023-03-15T10:58:54;14.4;34.7
78884;SHT31;68262;51.968;5.672;2023-03-15T11:01:26;14.3;35.0
78884;SHT31;68262;51.968;5.672;2023-03-15T11:04:12;14.1;34.2
78884;SHT31;68262;51.968;5.672;2023-03-15T11:06:45;13.9;36.1
78884;SHT31;68262;51.968;5.672;2023-03-15T11:09:16;13.9;36.4
78884;SHT31;68262;51.968;5.672;2023-03-15T11:11:56;13.9;36.5
78884;SHT31;68262;51.968;5.672;2023-03-15T11:14:34;14.1;37.9
78884;SHT31;68262;51.968;5.672;2023-03-15T11:17:06;14.3;37.3
78884;SHT31;68262;51.968;5.672;2023-03-15T11:19:40;14.7;34.5
78884;SHT31;68262;51.968;5.672;2023-03-15T11:22:13;15.0;34.3
78884;SHT31;68262;51.968;5.672;2023-03-15T11:24:42;15.3;34.0
78884;SHT31;68262;51.968;5.672;2023-03-15T11:27:15;15.5;31.9
78884;SHT31;68262;51.968;5.672;2023-03-15T11:29:48;15.9;32.5
78884;SHT31;68262;51.968;5.672;2023-03-15T11:32:20;16.2;30.5
78884;SHT31;68262;51.968;5.672;2023-03-15T11:34:55;16.5;31.7
78884;SHT31;68262;51.968;5.672;2023-03-15T11:37:32;16.7;29.9
78884;SHT31;68262;51.968;5.672;2023-03-15T11:40:14;17.0;29.2
78884;SHT31;68262;51.968;5.672;2023-03-15T11:42:48;17.3;26.2
78884;SHT31;68262;51.968;5.672;2023-03-15T11:45:28;17.4;26.9
78884;SHT31;68262;51.968;5.672;2023-03-15T11:48:04;17.5;27.5
78884;SHT31;68262;51.968;5.672;2023-03-15T11:50:37;17.7;25.9
78884;SHT31;68262;51.968;5.672;2023-03-15T11:53:09;17.8;26.1
78884;SHT31;68262;51.968;5.672;2023-03-15T11:55:48;17.8;26.8
78884;SHT31;68262;51.968;5.672;2023-03-15T11:58:31;17.9;27.1
78884;SHT31;68262;51.968;5.672;2023-03-15T12:01:05;18.0;23.3
78884;SHT31;68262;51.968;5.672;2023-03-15T12:03:38;18.2;24.6
78884;SHT31;68262;51.968;5.672;2023-03-15T12:06:34;18.4;25.7
78884;SHT31;68262;51.968;5.672;2023-03-15T12:09:48;18.6;26.2
78884;SHT31;68262;51.968;5.672;2023-03-15T12:12:44;19.0;24.7
78884;SHT31;68262;51.968;5.672;2023-03-15T12:15:42;19.3;26.0
78884;SHT31;68262;51.968;5.672;2023-03-15T12:18:21;19.6;26.6
78884;SHT31;68262;51.968;5.672;2023-03-15T12:21:04;19.9;23.8
78884;SHT31;68262;51.968;5.672;2023-03-15T12:23:39;20.2;24.5
78884;SHT31;68262;51.968;5.672;2023-03-15T12:26:15;20.5;23.2
78884;SHT31;68262;51.968;5.672;2023-03-15T12:29:03;20.8;23.7
78884;SHT31;68262;51.968;5.672;2023-03-15T12:31:50;21.1;23.2
78884;SHT31;68262;51.968;5.672;2023-03-15T12:34:47;21.4;23.6
78884;SHT31;68262;51.968;5.672;2023-03-15T12:37:21;21.5;22.2
78884;SHT31;68262;51.968;5.672;2023-03-15T12:40:00;21.7;22.1
78884;SHT31;68262;51.968;5.672;2023-03-15T12:43:04;21.9;22.6
78884;SHT31;68262;51.968;5.672;2023-03-15T12:45:36;22.1;22.5
78884;SHT31;68262;51.968;5.672;2023-03-15T12:48:19;22.3;21.0
78884;SHT31;68262;51.968;5.672;2023-03-15T12:50:54;22.5;21.9
78884;SHT31;68262;51.968;5.672;2023-03-15T12:53:32;22.6;21.2
78884;SHT31;68262;51.968;5.672;2023-03-15T12:58:20;22.7;20.6
78884;SHT31;68262;51.968;5.672;2023-03-15T13:00:54;22.9;20.2
78884;SHT31;68262;51.968;5.672;2023-03-15T13:03:25;22.9;19.9
78884;SHT31;68262;51.968;5.672;2023-03-15T13:06:02;23.0;20.0
78884;SHT31;68262;51.968;5.672;2023-03-15T13:08:43;23.1;19.6
78884;SHT31;68262;51.968;5.672;2023-03-15T13:11:22;23.2;19.9
78884;SHT31;68262;51.968;5.672;2023-03-15T13:14:09;23.3;18.9
78884;SHT31;68262;51.968;5.672;2023-03-15T13:16:52;23.5;20.4
78884;SHT31;68262;51.968;5.672;2023-03-15T13:19:26;23.6;20.1
78884;SHT31;68262;51.968;5.672;2023-03-15T13:22:16;23.7;19.6
78884;SHT31;68262;51.968;5.672;2023-03-15T13:24:56;23.8;19.4
78884;SHT31;68262;51.968;5.672;2023-03-15T13:27:45;23.9;19.5
78884;SHT31;68262;51.968;5.672;2023-03-15T13:30:31;23.9;20.2
78884;SHT31;68262;51.968;5.672;2023-03-15T13:33:16;23.9;19.0
78884;SHT31;68262;51.968;5.672;2023-03-15T13:35:55;23.9;19.4
78884;SHT31;68262;51.968;5.672;2023-03-15T13:38:31;24.0;19.7
78884;SHT31;68262;51.968;5.672;2023-03-15T13:41:03;24.0;19.0
78884;SHT31;68262;51.968;5.672;2023-03-15T13:43:35;24.1;18.7
78884;SHT31;68262;51.968;5.672;2023-03-15T13:46:05;24.1;19.6
78884;SHT31;68262;51.968;5.672;2023-03-15T13:48:36;24.2;18.6
78884;SHT31;68262;51.968;5.672;2023-03-15T13:51:14;24.2;17.6
78884;SHT31;68262;51.968;5.672;2023-03-15T13:53:47;24.3;18.6
78884;SHT31;68262;51.968;5.672;2023-03-15T13:56:20;24.3;19.1
78884;SHT31;68262;51.968;5.672;2023-03-15T13:58:53;24.3;18.2
78884;SHT31;68262;51.968;5.672;2023-03-15T14:01:25;24.3;19.1
78884;SHT31;68262;51.968;5.672;2023-03-15T14:03:59;24.3;19.4
78884;SHT31;68262;51.968;5.672;2023-03-15T14:06:30;24.3;18.7
78884;SHT31;68262;51.968;5.672;2023-03-15T14:09:08;24.3;19.0
78884;SHT31;68262;51.968;5.672;2023-03-15T14:11:39;24.3;17.7
78884;SHT31;68262;51.968;5.672;2023-03-15T14:14:22;24.2;18.1
78884;SHT31;68262;51.968;5.672;2023-03-15T14:16:53;24.2;17.9
78884;SHT31;68262;51.968;5.672;2023-03-15T14:19:24;24.1;18.0
78884;SHT31;68262;51.968;5.672;2023-03-15T14:21:56;24.0;17.9
78884;SHT31;68262;51.968;5.672;2023-03-15T14:24:31;23.8;17.9
78884;SHT31;68262;51.968;5.672;2023-03-15T14:27:05;23.7;18.5
78884;SHT31;68262;51.968;5.672;2023-03-15T14:29:38;23.6;18.8
78884;SHT31;68262;51.968;5.672;2023-03-15T14:32:24;23.5;19.4
78884;SHT31;68262;51.968;5.672;2023-03-15T14:35:04;23.4;18.9
78884;SHT31;68262;51.968;5.672;2023-03-15T14:37:38;23.2;19.1
78884;SHT31;68262;51.968;5.672;2023-03-15T14:40:18;23.0;18.3
78884;SHT31;68262;51.968;5.672;2023-03-15T14:42:49;22.7;19.0
78884;SHT31;68262;51.968;5.672;2023-03-15T14:45:20;22.5;19.0
78884;SHT31;68262;51.968;5.672;2023-03-15T14:47:54;22.3;19.4
78884;SHT31;68262;51.968;5.672;2023-03-15T14:50:27;22.1;19.5
78884;SHT31;68262;51.968;5.672;2023-03-15T14:52:58;21.9;20.1
78884;SHT31;68262;51.968;5.672;2023-03-15T14:55:30;21.8;20.4
78884;SHT31;68262;51.968;5.672;2023-03-15T14:58:02;21.6;20.2
78884;SHT31;68262;51.968;5.672;2023-03-15T15:00:35;21.5;19.8
78884;SHT31;68262;51.968;5.672;2023-03-15T15:03:15;21.3;19.9
78884;SHT31;68262;51.968;5.672;2023-03-15T15:05:46;21.2;20.0
78884;SHT31;68262;51.968;5.672;2023-03-15T15:08:19;21.0;20.4
78884;SHT31;68262;51.968;5.672;2023-03-15T15:10:51;20.9;20.2
78884;SHT31;68262;51.968;5.672;2023-03-15T15:13:23;20.8;20.7
78884;SHT31;68262;51.968;5.672;2023-03-15T15:15:53;20.6;19.9
78884;SHT31;68262;51.968;5.672;2023-03-15T15:18:25;20.5;21.3
78884;SHT31;68262;51.968;5.672;2023-03-15T15:20:55;20.4;21.3
78884;SHT31;68262;51.968;5.672;2023-03-15T15:23:28;20.3;21.5
78884;SHT31;68262;51.968;5.672;2023-03-15T15:26:00;20.1;20.8
78884;SHT31;68262;51.968;5.672;2023-03-15T15:28:31;20.0;21.3
78884;SHT31;68262;51.968;5.672;2023-03-15T15:31:02;19.8;21.0
78884;SHT31;68262;51.968;5.672;2023-03-15T15:33:32;19.7;21.5
78884;SHT31;68262;51.968;5.672;2023-03-15T15:36:01;19.5;22.8
78884;SHT31;68262;51.968;5.672;2023-03-15T15:38:33;19.4;23.4
78884;SHT31;68262;51.968;5.672;2023-03-15T15:41:05;19.3;22.1
78884;SHT31;68262;51.968;5.672;2023-03-15T15:43:34;19.2;21.1
78884;SHT31;68262;51.968;5.672;2023-03-15T15:46:04;19.1;21.3
78884;SHT31;68262;51.968;5.672;2023-03-15T15:48:33;19.0;21.7
78884;SHT31;68262;51.968;5.672;2023-03-15T15:51:24;18.8;21.8
78884;SHT31;68262;51.968;5.672;2023-03-15T15:53:56;18.7;23.0
78884;SHT31;68262;51.968;5.672;2023-03-15T15:56:31;18.6;23.5
78884;SHT31;68262;51.968;5.672;2023-03-15T15:59:02;18.5;24.1
78884;SHT31;68262;51.968;5.672;2023-03-15T16:01:32;18.4;23.8
78884;SHT31;68262;51.968;5.672;2023-03-15T16:04:02;18.3;23.8
78884;SHT31;68262;51.968;5.672;2023-03-15T16:06:33;18.2;24.0
78884;SHT31;68262;51.968;5.672;2023-03-15T16:09:06;18.0;25.3
78884;SHT31;68262;51.968;5.672;2023-03-15T16:11:36;17.9;24.5
78884;SHT31;68262;51.968;5.672;2023-03-15T16:14:10;17.8;25.0
78884;SHT31;68262;51.968;5.672;2023-03-15T16:16:40;17.7;24.1
78884;SHT31;68262;51.968;5.672;2023-03-15T16:19:12;17.6;23.9
78884;SHT31;68262;51.968;5.672;2023-03-15T16:21:43;17.5;24.5
78884;SHT31;68262;51.968;5.672;2023-03-15T16:24:17;17.4;25.1
78884;SHT31;68262;51.968;5.672;2023-03-15T16:26:48;17.3;25.6
78884;SHT31;68262;51.968;5.672;2023-03-15T16:29:21;17.2;24.9
78884;SHT31;68262;51.968;5.672;2023-03-15T16:31:53;17.1;27.8
78884;SHT31;68262;51.968;5.672;2023-03-15T16:34:25;17.0;26.0
78884;SHT31;68262;51.968;5.672;2023-03-15T16:36:54;16.9;26.4
78884;SHT31;68262;51.968;5.672;2023-03-15T16:39:24;16.9;26.0
78884;SHT31;68262;51.968;5.672;2023-03-15T16:41:54;16.8;25.7
78884;SHT31;68262;51.968;5.672;2023-03-15T16:44:24;16.7;25.9
78884;SHT31;68262;51.968;5.672;2023-03-15T16:46:56;16.5;26.2
78884;SHT31;68262;51.968;5.672;2023-03-15T16:49:25;16.4;27.4